sensor_id;sensor_type;location;lat;lon;timestamp;pressure;altitude;pressure_sealevel;temperature;humidity
33432;BME280;35187;31.882;34.828;2023-05-07T00:01:22;100480;;;22;39
33432;BME280;35187;31.882;34.828;2023-05-07T00:03:51;100480;;;22;39
33432;BME280;35187;31.882;34.828;2023-05-07T00:06:20;100480;;;22;39
33432;BME280;35187;31.882;34.828;2023-05-07T00:08:49;100480;;;22;39
33432;BME280;35187;31.882;34.828;2023-05-07T00:11:19;100490;;;22;39
33432;BME280;35187;31.882;34.828;2023-05-07T00:13:48;100490;;;22;39
33432;BME280;35187;31.882;34.828;2023-05-07T00:16:36;100500;;;22;39
33432;BME280;35187;31.882;34.828;2023-05-07T00:19:05;100500;;;22;39
33432;BME280;35187;31.882;34.828;2023-05-07T00:21:44;100500;;;22;39
33432;BME280;35187;31.882;34.828;2023-05-07T00:24:13;100490;;;22;39
33432;BME280;35187;31.882;34.828;2023-05-07T00:26:47;100490;;;22;39
33432;BME280;35187;31.882;34.828;2023-05-07T00:29:16;100490;;;22;39
33432;BME280;35187;31.882;34.828;2023-05-07T00:31:50;100500;;;22;39
33432;BME280;35187;31.882;34.828;2023-05-07T00:34:19;100490;;;22;39
33432;BME280;35187;31.882;34.828;2023-05-07T00:37:01;100490;;;22;39
33432;BME280;35187;31.882;34.828;2023-05-07T00:39:34;100490;;;22;39
33432;BME280;35187;31.882;34.828;2023-05-07T00:42:04;100500;;;22;39
33432;BME280;35187;31.882;34.828;2023-05-07T00:44:39;100490;;;22;39
33432;BME280;35187;31.882;34.828;2023-05-07T00:47:08;100500;;;22;39
33432;BME280;35187;31.882;34.828;2023-05-07T00:49:43;100500;;;22;39
33432;BME280;35187;31.882;34.828;2023-05-07T00:52:16;100500;;;22;39
33432;BME280;35187;31.882;34.828;2023-05-07T00:54:55;100500;;;22;39
33432;BME280;35187;31.882;34.828;2023-05-07T00:57:24;100500;;;22;39
33432;BME280;35187;31.882;34.828;2023-05-07T00:59:58;100490;;;22;39
33432;BME280;35187;31.882;34.828;2023-05-07T01:02:27;100490;;;22;39
33432;BME280;35187;31.882;34.828;2023-05-07T01:04:56;100490;;;22;39
33432;BME280;35187;31.882;34.828;2023-05-07T01:07:25;100490;;;22;39
33432;BME280;35187;31.882;34.828;2023-05-07T01:09:54;100490;;;22;39
33432;BME280;35187;31.882;34.828;2023-05-07T01:12:23;100480;;;22;39
33432;BME280;35187;31.882;34.828;2023-05-07T01:14:53;100480;;;22;39
33432;BME280;35187;31.882;34.828;2023-05-07T01:17:22;100480;;;22;38
33432;BME280;35187;31.882;34.828;2023-05-07T01:19:52;100480;;;22;38
33432;BME280;35187;31.882;34.828;2023-05-07T01:22:31;100480;;;22;38
33432;BME280;35187;31.882;34.828;2023-05-07T01:25:01;100480;;;22;38
33432;BME280;35187;31.882;34.828;2023-05-07T01:27:31;100480;;;22;38
33432;BME280;35187;31.882;34.828;2023-05-07T01:30:02;100480;;;22;38
33432;BME280;35187;31.882;34.828;2023-05-07T01:32:38;100480;;;22;38
33432;BME280;35187;31.882;34.828;2023-05-07T01:35:19;100480;;;22;38
33432;BME280;35187;31.882;34.828;2023-05-07T01:37:49;100490;;;22;39
33432;BME280;35187;31.882;34.828;2023-05-07T01:40:19;100490;;;22;39
33432;BME280;35187;31.882;34.828;2023-05-07T01:42:57;100490;;;22;39
33432;BME280;35187;31.882;34.828;2023-05-07T01:48:07;100490;;;22;39
33432;BME280;35187;31.882;34.828;2023-05-07T01:50:37;100490;;;22;39
33432;BME280;35187;31.882;34.828;2023-05-07T01:53:06;100490;;;22;39
33432;BME280;35187;31.882;34.828;2023-05-07T01:55:39;100490;;;22;39
33432;BME280;35187;31.882;34.828;2023-05-07T01:58:20;100500;;;22;39
33432;BME280;35187;31.882;34.828;2023-05-07T02:00:49;100500;;;22;39
33432;BME280;35187;31.882;34.828;2023-05-07T02:03:27;100500;;;22;39
33432;BME280;35187;31.882;34.828;2023-05-07T02:06:01;100500;;;22;39
33432;BME280;35187;31.882;34.828;2023-05-07T02:08:32;100500;;;22;39
33432;BME280;35187;31.882;34.828;2023-05-07T02:11:01;100500;;;22;39
33432;BME280;35187;31.882;34.828;2023-05-07T02:13:31;100500;;;22;39
33432;BME280;35187;31.882;34.828;2023-05-07T02:16:01;100510;;;22;39
33432;BME280;35187;31.882;34.828;2023-05-07T02:18:35;100510;;;22;39
33432;BME280;35187;31.882;34.828;2023-05-07T02:21:12;100510;;;22;39
33432;BME280;35187;31.882;34.828;2023-05-07T02:23:42;100500;;;22;38
33432;BME280;35187;31.882;34.828;2023-05-07T02:26:12;100500;;;22;39
33432;BME280;35187;31.882;34.828;2023-05-07T02:28:41;100500;;;22;39
33432;BME280;35187;31.882;34.828;2023-05-07T02:31:09;100500;;;22;39
33432;BME280;35187;31.882;34.828;2023-05-07T02:33:38;100510;;;22;39
33432;BME280;35187;31.882;34.828;2023-05-07T02:36:12;100510;;;22;39
33432;BME280;35187;31.882;34.828;2023-05-07T02:38:41;100510;;;22;39
33432;BME280;35187;31.882;34.828;2023-05-07T02:41:15;100520;;;22;39
33432;BME280;35187;31.882;34.828;2023-05-07T02:43:44;100520;;;22;39
33432;BME280;35187;31.882;34.828;2023-05-07T02:46:14;100520;;;22;39
33432;BME280;35187;31.882;34.828;2023-05-07T02:48:43;100530;;;22;39
33432;BME280;35187;31.882;34.828;2023-05-07T02:51:13;100530;;;22;39
33432;BME280;35187;31.882;34.828;2023-05-07T02:53:47;100530;;;22;39
33432;BME280;35187;31.882;34.828;2023-05-07T02:56:16;100540;;;22;39
33432;BME280;35187;31.882;34.828;2023-05-07T02:58:46;100540;;;22;39
33432;BME280;35187;31.882;34.828;2023-05-07T03:01:15;100550;;;22;39
33432;BME280;35187;31.882;34.828;2023-05-07T03:03:44;100550;;;22;39
33432;BME280;35187;31.882;34.828;2023-05-07T03:06:15;100560;;;22;39
33432;BME280;35187;31.882;34.828;2023-05-07T03:08:45;100560;;;22;39
33432;BME280;35187;31.882;34.828;2023-05-07T03:11:16;100570;;;22;39
33432;BME280;35187;31.882;34.828;2023-05-07T03:13:46;100570;;;22;39
33432;BME280;35187;31.882;34.828;2023-05-07T03:16:15;100570;;;22;39
33432;BME280;35187;31.882;34.828;2023-05-07T03:18:46;100570;;;22;39
33432;BME280;35187;31.882;34.828;2023-05-07T03:21:15;100580;;;22;39
33432;BME280;35187;31.882;34.828;2023-05-07T03:23:43;100580;;;22;39
33432;BME280;35187;31.882;34.828;2023-05-07T03:26:12;100580;;;22;39
33432;BME280;35187;31.882;34.828;2023-05-07T03:28:41;100580;;;22;39
33432;BME280;35187;31.882;34.828;2023-05-07T03:31:10;100580;;;22;39
33432;BME280;35187;31.882;34.828;2023-05-07T03:33:50;100580;;;22;39
33432;BME280;35187;31.882;34.828;2023-05-07T03:36:20;100580;;;22;39
33432;BME280;35187;31.882;34.828;2023-05-07T03:38:50;100580;;;22;39
33432;BME280;35187;31.882;34.828;2023-05-07T03:41:19;100590;;;22;39
33432;BME280;35187;31.882;34.828;2023-05-07T03:43:48;100590;;;22;39
33432;BME280;35187;31.882;34.828;2023-05-07T03:46:17;100600;;;22;39
33432;BME280;35187;31.882;34.828;2023-05-07T03:48:46;100590;;;22;39
33432;BME280;35187;31.882;34.828;2023-05-07T03:51:15;100600;;;22;39
33432;BME280;35187;31.882;34.828;2023-05-07T03:53:44;100600;;;22;39
33432;BME280;35187;31.882;34.828;2023-05-07T03:56:13;100610;;;22;39
33432;BME280;35187;31.882;34.828;2023-05-07T03:58:42;100610;;;22;39
33432;BME280;35187;31.882;34.828;2023-05-07T04:01:13;100620;;;22;39
33432;BME280;35187;31.882;34.828;2023-05-07T04:03:44;100620;;;22;40
33432;BME280;35187;31.882;34.828;2023-05-07T04:06:15;100620;;;22;40
33432;BME280;35187;31.882;34.828;2023-05-07T04:08:44;100620;;;22;40
33432;BME280;35187;31.882;34.828;2023-05-07T04:11:13;100620;;;22;40
33432;BME280;35187;31.882;34.828;2023-05-07T04:13:42;100630;;;22;40
33432;BME280;35187;31.882;34.828;2023-05-07T04:16:11;100630;;;22;40
33432;BME280;35187;31.882;34.828;2023-05-07T04:18:40;100630;;;22;40
33432;BME280;35187;31.882;34.828;2023-05-07T04:21:15;100640;;;22;40
33432;BME280;35187;31.882;34.828;2023-05-07T04:23:47;100640;;;22;41
33432;BME280;35187;31.882;34.828;2023-05-07T04:26:16;100640;;;22;41
33432;BME280;35187;31.882;34.828;2023-05-07T04:28:45;100640;;;22;41
33432;BME280;35187;31.882;34.828;2023-05-07T04:31:16;100650;;;22;41
33432;BME280;35187;31.882;34.828;2023-05-07T04:33:45;100650;;;22;41
33432;BME280;35187;31.882;34.828;2023-05-07T04:36:14;100640;;;22;41
33432;BME280;35187;31.882;34.828;2023-05-07T04:38:43;100640;;;22;41
33432;BME280;35187;31.882;34.828;2023-05-07T04:41:13;100650;;;22;42
33432;BME280;35187;31.882;34.828;2023-05-07T04:43:41;100650;;;22;42
33432;BME280;35187;31.882;34.828;2023-05-07T04:46:10;100650;;;22;42
33432;BME280;35187;31.882;34.828;2023-05-07T04:48:39;100650;;;22;42
33432;BME280;35187;31.882;34.828;2023-05-07T04:51:25;100650;;;22;42
33432;BME280;35187;31.882;34.828;2023-05-07T04:53:54;100650;;;22;42
33432;BME280;35187;31.882;34.828;2023-05-07T04:56:24;100650;;;22;42
33432;BME280;35187;31.882;34.828;2023-05-07T04:58:55;100660;;;22;43
33432;BME280;35187;31.882;34.828;2023-05-07T05:01:25;100660;;;22;43
33432;BME280;35187;31.882;34.828;2023-05-07T05:03:54;100660;;;22;43
33432;BME280;35187;31.882;34.828;2023-05-07T05:06:23;100660;;;22;44
33432;BME280;35187;31.882;34.828;2023-05-07T05:08:52;100660;;;22;44
33432;BME280;35187;31.882;34.828;2023-05-07T05:11:21;100660;;;22;44
33432;BME280;35187;31.882;34.828;2023-05-07T05:13:50;100660;;;22;45
33432;BME280;35187;31.882;34.828;2023-05-07T05:16:21;100670;;;22;45
33432;BME280;35187;31.882;34.828;2023-05-07T05:18:50;100680;;;22;45
33432;BME280;35187;31.882;34.828;2023-05-07T05:21:20;100680;;;22;45
33432;BME280;35187;31.882;34.828;2023-05-07T05:23:49;100680;;;22;45
33432;BME280;35187;31.882;34.828;2023-05-07T05:26:18;100680;;;22;45
33432;BME280;35187;31.882;34.828;2023-05-07T05:28:47;100680;;;22;46
33432;BME280;35187;31.882;34.828;2023-05-07T05:31:16;100680;;;22;46
33432;BME280;35187;31.882;34.828;2023-05-07T05:33:45;100680;;;22;45
33432;BME280;35187;31.882;34.828;2023-05-07T05:36:14;100680;;;22;46
33432;BME280;35187;31.882;34.828;2023-05-07T05:38:44;100690;;;22;46
33432;BME280;35187;31.882;34.828;2023-05-07T05:41:13;100690;;;22;46
33432;BME280;35187;31.882;34.828;2023-05-07T05:43:42;100700;;;22;46
33432;BME280;35187;31.882;34.828;2023-05-07T05:46:11;100710;;;22;46
33432;BME280;35187;31.882;34.828;2023-05-07T05:48:40;100700;;;22;46
33432;BME280;35187;31.882;34.828;2023-05-07T05:51:09;100710;;;22;46
33432;BME280;35187;31.882;34.828;2023-05-07T05:53:38;100710;;;22;46
33432;BME280;35187;31.882;34.828;2023-05-07T05:56:14;100710;;;22;46
33432;BME280;35187;31.882;34.828;2023-05-07T05:58:44;100700;;;23;46
33432;BME280;35187;31.882;34.828;2023-05-07T06:01:13;100700;;;23;46
33432;BME280;35187;31.882;34.828;2023-05-07T06:03:42;100710;;;23;46
33432;BME280;35187;31.882;34.828;2023-05-07T06:06:11;100720;;;22;46
33432;BME280;35187;31.882;34.828;2023-05-07T06:08:40;100720;;;23;46
33432;BME280;35187;31.882;34.828;2023-05-07T06:11:09;100720;;;23;46
33432;BME280;35187;31.882;34.828;2023-05-07T06:13:38;100720;;;22;46
33432;BME280;35187;31.882;34.828;2023-05-07T06:16:07;100720;;;22;46
33432;BME280;35187;31.882;34.828;2023-05-07T06:18:36;100730;;;22;46
33432;BME280;35187;31.882;34.828;2023-05-07T06:21:05;100730;;;22;46
33432;BME280;35187;31.882;34.828;2023-05-07T06:23:34;100730;;;22;46
33432;BME280;35187;31.882;34.828;2023-05-07T06:26:04;100730;;;22;46
33432;BME280;35187;31.882;34.828;2023-05-07T06:28:32;100730;;;22;46
33432;BME280;35187;31.882;34.828;2023-05-07T06:31:12;100740;;;23;46
33432;BME280;35187;31.882;34.828;2023-05-07T06:33:41;100740;;;23;46
33432;BME280;35187;31.882;34.828;2023-05-07T06:36:11;100740;;;22;46
33432;BME280;35187;31.882;34.828;2023-05-07T06:38:40;100740;;;22;46
33432;BME280;35187;31.882;34.828;2023-05-07T06:41:09;100750;;;22;46
33432;BME280;35187;31.882;34.828;2023-05-07T06:43:39;100750;;;22;46
33432;BME280;35187;31.882;34.828;2023-05-07T06:46:08;100750;;;22;45
33432;BME280;35187;31.882;34.828;2023-05-07T06:48:37;100750;;;22;45
33432;BME280;35187;31.882;34.828;2023-05-07T06:51:06;100750;;;22;45
33432;BME280;35187;31.882;34.828;2023-05-07T06:53:36;100750;;;22;45
33432;BME280;35187;31.882;34.828;2023-05-07T06:56:05;100750;;;22;45
33432;BME280;35187;31.882;34.828;2023-05-07T06:58:34;100760;;;22;45
33432;BME280;35187;31.882;34.828;2023-05-07T07:01:03;100760;;;22;45
33432;BME280;35187;31.882;34.828;2023-05-07T07:03:32;100760;;;22;45
33432;BME280;35187;31.882;34.828;2023-05-07T07:06:01;100760;;;22;45
33432;BME280;35187;31.882;34.828;2023-05-07T07:08:31;100760;;;22;45
33432;BME280;35187;31.882;34.828;2023-05-07T07:11:00;100760;;;23;45
33432;BME280;35187;31.882;34.828;2023-05-07T07:13:29;100760;;;22;45
33432;BME280;35187;31.882;34.828;2023-05-07T07:15:58;100760;;;22;45
33432;BME280;35187;31.882;34.828;2023-05-07T07:18:28;100760;;;22;45
33432;BME280;35187;31.882;34.828;2023-05-07T07:20:57;100760;;;22;45
33432;BME280;35187;31.882;34.828;2023-05-07T07:23:26;100770;;;23;45
33432;BME280;35187;31.882;34.828;2023-05-07T07:25:55;100770;;;22;45
33432;BME280;35187;31.882;34.828;2023-05-07T07:28:24;100770;;;22;45
33432;BME280;35187;31.882;34.828;2023-05-07T07:30:54;100770;;;22;45
33432;BME280;35187;31.882;34.828;2023-05-07T07:33:23;100780;;;22;45
33432;BME280;35187;31.882;34.828;2023-05-07T07:35:52;100780;;;23;45
33432;BME280;35187;31.882;34.828;2023-05-07T07:38:21;100770;;;23;45
33432;BME280;35187;31.882;34.828;2023-05-07T07:40:50;100780;;;23;45
33432;BME280;35187;31.882;34.828;2023-05-07T07:43:20;100780;;;23;45
33432;BME280;35187;31.882;34.828;2023-05-07T07:45:48;100780;;;22;45
33432;BME280;35187;31.882;34.828;2023-05-07T07:48:17;100780;;;23;45
33432;BME280;35187;31.882;34.828;2023-05-07T07:50:49;100770;;;22;45
33432;BME280;35187;31.882;34.828;2023-05-07T07:53:18;100770;;;23;45
33432;BME280;35187;31.882;34.828;2023-05-07T07:55:47;100770;;;23;45
33432;BME280;35187;31.882;34.828;2023-05-07T07:58:16;100770;;;23;45
33432;BME280;35187;31.882;34.828;2023-05-07T08:00:45;100770;;;23;45
33432;BME280;35187;31.882;34.828;2023-05-07T08:03:14;100770;;;23;45
33432;BME280;35187;31.882;34.828;2023-05-07T08:05:43;100770;;;22;45
33432;BME280;35187;31.882;34.828;2023-05-07T08:08:12;100780;;;23;44
33432;BME280;35187;31.882;34.828;2023-05-07T08:10:47;100780;;;23;45
33432;BME280;35187;31.882;34.828;2023-05-07T08:13:20;100780;;;23;45
33432;BME280;35187;31.882;34.828;2023-05-07T08:15:49;100780;;;23;45
33432;BME280;35187;31.882;34.828;2023-05-07T08:18:24;100770;;;22;45
33432;BME280;35187;31.882;34.828;2023-05-07T08:20:54;100780;;;23;45
33432;BME280;35187;31.882;34.828;2023-05-07T08:23:23;100780;;;22;45
33432;BME280;35187;31.882;34.828;2023-05-07T08:25:52;100780;;;23;45
33432;BME280;35187;31.882;34.828;2023-05-07T08:28:22;100780;;;23;45
33432;BME280;35187;31.882;34.828;2023-05-07T08:30:51;100770;;;23;45
33432;BME280;35187;31.882;34.828;2023-05-07T08:33:24;100780;;;23;45
33432;BME280;35187;31.882;34.828;2023-05-07T08:35:54;100770;;;22;45
33432;BME280;35187;31.882;34.828;2023-05-07T08:38:23;100770;;;23;45
33432;BME280;35187;31.882;34.828;2023-05-07T08:40:53;100760;;;23;45
33432;BME280;35187;31.882;34.828;2023-05-07T08:43:22;100770;;;22;45
33432;BME280;35187;31.882;34.828;2023-05-07T08:45:54;100770;;;23;45
33432;BME280;35187;31.882;34.828;2023-05-07T08:48:25;100770;;;22;45
33432;BME280;35187;31.882;34.828;2023-05-07T08:50:58;100770;;;22;45
33432;BME280;35187;31.882;34.828;2023-05-07T08:53:28;100760;;;23;45
33432;BME280;35187;31.882;34.828;2023-05-07T08:55:57;100790;;;23;45
33432;BME280;35187;31.882;34.828;2023-05-07T08:58:27;100790;;;23;45
33432;BME280;35187;31.882;34.828;2023-05-07T09:00:56;100780;;;22;45
33432;BME280;35187;31.882;34.828;2023-05-07T09:03:25;100780;;;23;45
33432;BME280;35187;31.882;34.828;2023-05-07T09:05:54;100780;;;23;45
33432;BME280;35187;31.882;34.828;2023-05-07T09:08:27;100780;;;22;45
33432;BME280;35187;31.882;34.828;2023-05-07T09:10:56;100780;;;22;45
33432;BME280;35187;31.882;34.828;2023-05-07T09:13:28;100780;;;23;45
33432;BME280;35187;31.882;34.828;2023-05-07T09:15:57;100780;;;23;46
33432;BME280;35187;31.882;34.828;2023-05-07T09:18:26;100790;;;23;46
33432;BME280;35187;31.882;34.828;2023-05-07T09:20:55;100780;;;23;46
33432;BME280;35187;31.882;34.828;2023-05-07T09:23:25;100780;;;23;46
33432;BME280;35187;31.882;34.828;2023-05-07T09:26:00;100770;;;22;46
33432;BME280;35187;31.882;34.828;2023-05-07T09:28:30;100770;;;22;46
33432;BME280;35187;31.882;34.828;2023-05-07T09:30:59;100780;;;23;46
33432;BME280;35187;31.882;34.828;2023-05-07T09:33:30;100770;;;23;46
33432;BME280;35187;31.882;34.828;2023-05-07T09:36:02;100770;;;22;46
33432;BME280;35187;31.882;34.828;2023-05-07T09:38:32;100770;;;23;46
33432;BME280;35187;31.882;34.828;2023-05-07T09:41:04;100770;;;23;47
33432;BME280;35187;31.882;34.828;2023-05-07T09:43:34;100770;;;23;46
33432;BME280;35187;31.882;34.828;2023-05-07T09:46:07;100760;;;23;46
33432;BME280;35187;31.882;34.828;2023-05-07T09:48:38;100760;;;23;46
33432;BME280;35187;31.882;34.828;2023-05-07T09:51:17;100760;;;23;46
33432;BME280;35187;31.882;34.828;2023-05-07T09:53:48;100760;;;23;46
33432;BME280;35187;31.882;34.828;2023-05-07T09:56:19;100760;;;23;46
33432;BME280;35187;31.882;34.828;2023-05-07T09:58:50;100760;;;22;46
33432;BME280;35187;31.882;34.828;2023-05-07T10:01:21;100760;;;22;45
33432;BME280;35187;31.882;34.828;2023-05-07T10:03:51;100760;;;23;45
33432;BME280;35187;31.882;34.828;2023-05-07T10:06:30;100770;;;23;45
33432;BME280;35187;31.882;34.828;2023-05-07T10:09:00;100760;;;22;45
33432;BME280;35187;31.882;34.828;2023-05-07T10:11:30;100760;;;23;44
33432;BME280;35187;31.882;34.828;2023-05-07T10:14:01;100750;;;23;44
33432;BME280;35187;31.882;34.828;2023-05-07T10:16:31;100750;;;23;44
33432;BME280;35187;31.882;34.828;2023-05-07T10:19:03;100750;;;23;43
33432;BME280;35187;31.882;34.828;2023-05-07T10:21:34;100760;;;22;43
33432;BME280;35187;31.882;34.828;2023-05-07T10:24:12;100750;;;22;43
33432;BME280;35187;31.882;34.828;2023-05-07T10:27:33;100760;;;23;48
33432;BME280;35187;31.882;34.828;2023-05-07T10:30:11;100760;;;22;46
33432;BME280;35187;31.882;34.828;2023-05-07T10:32:43;100760;;;22;45
33432;BME280;35187;31.882;34.828;2023-05-07T10:35:19;100760;;;22;46
33432;BME280;35187;31.882;34.828;2023-05-07T10:37:49;100760;;;22;46
33432;BME280;35187;31.882;34.828;2023-05-07T10:40:20;100760;;;22;44
33432;BME280;35187;31.882;34.828;2023-05-07T10:42:58;100760;;;22;45
33432;BME280;35187;31.882;34.828;2023-05-07T10:45:29;100760;;;22;44
33432;BME280;35187;31.882;34.828;2023-05-07T10:48:15;100760;;;22;46
33432;BME280;35187;31.882;34.828;2023-05-07T10:50:45;100750;;;22;45
33432;BME280;35187;31.882;34.828;2023-05-07T10:53:30;100750;;;23;45
33432;BME280;35187;31.882;34.828;2023-05-07T10:56:31;100760;;;22;45
33432;BME280;35187;31.882;34.828;2023-05-07T10:59:34;100750;;;23;44
33432;BME280;35187;31.882;34.828;2023-05-07T11:02:04;100760;;;22;44
33432;BME280;35187;31.882;34.828;2023-05-07T11:04:34;100750;;;23;42
33432;BME280;35187;31.882;34.828;2023-05-07T11:07:41;100750;;;23;43
33432;BME280;35187;31.882;34.828;2023-05-07T11:10:48;100740;;;23;43
33432;BME280;35187;31.882;34.828;2023-05-07T11:13:18;100740;;;22;43
33432;BME280;35187;31.882;34.828;2023-05-07T11:15:48;100740;;;23;44
33432;BME280;35187;31.882;34.828;2023-05-07T11:18:18;100740;;;23;43
33432;BME280;35187;31.882;34.828;2023-05-07T11:20:51;100730;;;22;43
33432;BME280;35187;31.882;34.828;2023-05-07T11:24:03;100740;;;22;44
33432;BME280;35187;31.882;34.828;2023-05-07T11:26:46;100740;;;23;44
33432;BME280;35187;31.882;34.828;2023-05-07T11:29:44;100740;;;22;44
33432;BME280;35187;31.882;34.828;2023-05-07T11:32:15;100740;;;23;45
33432;BME280;35187;31.882;34.828;2023-05-07T11:34:44;100740;;;22;44
33432;BME280;35187;31.882;34.828;2023-05-07T11:37:18;100740;;;23;45
33432;BME280;35187;31.882;34.828;2023-05-07T11:39:47;100740;;;22;44
33432;BME280;35187;31.882;34.828;2023-05-07T11:42:34;100740;;;23;44
33432;BME280;35187;31.882;34.828;2023-05-07T11:45:05;100740;;;22;43
33432;BME280;35187;31.882;34.828;2023-05-07T11:47:34;100730;;;23;44
33432;BME280;35187;31.882;34.828;2023-05-07T11:50:05;100730;;;23;44
33432;BME280;35187;31.882;34.828;2023-05-07T11:52:35;100730;;;22;44
33432;BME280;35187;31.882;34.828;2023-05-07T11:55:09;100720;;;22;45
33432;BME280;35187;31.882;34.828;2023-05-07T11:57:38;100720;;;22;44
33432;BME280;35187;31.882;34.828;2023-05-07T12:00:09;100720;;;22;45
33432;BME280;35187;31.882;34.828;2023-05-07T12:02:38;100720;;;22;45
33432;BME280;35187;31.882;34.828;2023-05-07T12:05:08;100720;;;22;45
33432;BME280;35187;31.882;34.828;2023-05-07T12:07:37;100710;;;22;45
33432;BME280;35187;31.882;34.828;2023-05-07T12:10:06;100710;;;23;45
33432;BME280;35187;31.882;34.828;2023-05-07T12:12:39;100710;;;22;45
33432;BME280;35187;31.882;34.828;2023-05-07T12:15:09;100710;;;23;45
33432;BME280;35187;31.882;34.828;2023-05-07T12:17:44;100710;;;22;45
33432;BME280;35187;31.882;34.828;2023-05-07T12:20:13;100710;;;22;45
33432;BME280;35187;31.882;34.828;2023-05-07T12:22:42;100700;;;22;46
33432;BME280;35187;31.882;34.828;2023-05-07T12:25:11;100710;;;23;46
33432;BME280;35187;31.882;34.828;2023-05-07T12:27:41;100700;;;22;46
33432;BME280;35187;31.882;34.828;2023-05-07T12:30:13;100710;;;23;47
33432;BME280;35187;31.882;34.828;2023-05-07T12:32:45;100710;;;23;46
33432;BME280;35187;31.882;34.828;2023-05-07T12:35:14;100710;;;23;46
33432;BME280;35187;31.882;34.828;2023-05-07T12:37:43;100710;;;22;46
33432;BME280;35187;31.882;34.828;2023-05-07T12:40:15;100700;;;23;46
33432;BME280;35187;31.882;34.828;2023-05-07T12:42:44;100710;;;22;46
33432;BME280;35187;31.882;34.828;2023-05-07T12:45:16;100710;;;22;46
33432;BME280;35187;31.882;34.828;2023-05-07T12:47:48;100710;;;22;46
33432;BME280;35187;31.882;34.828;2023-05-07T12:50:18;100700;;;22;46
33432;BME280;35187;31.882;34.828;2023-05-07T12:52:48;100700;;;23;46
33432;BME280;35187;31.882;34.828;2023-05-07T12:55:18;100710;;;23;46
33432;BME280;35187;31.882;34.828;2023-05-07T12:57:49;100710;;;22;46
33432;BME280;35187;31.882;34.828;2023-05-07T13:00:32;100710;;;22;46
33432;BME280;35187;31.882;34.828;2023-05-07T13:03:00;100710;;;23;46
33432;BME280;35187;31.882;34.828;2023-05-07T13:05:32;100720;;;22;45
33432;BME280;35187;31.882;34.828;2023-05-07T13:08:02;100710;;;22;45
33432;BME280;35187;31.882;34.828;2023-05-07T13:10:31;100710;;;23;46
33432;BME280;35187;31.882;34.828;2023-05-07T13:13:00;100710;;;22;46
33432;BME280;35187;31.882;34.828;2023-05-07T13:15:29;100710;;;22;47
33432;BME280;35187;31.882;34.828;2023-05-07T13:17:58;100720;;;22;46
33432;BME280;35187;31.882;34.828;2023-05-07T13:20:36;100710;;;22;46
33432;BME280;35187;31.882;34.828;2023-05-07T13:23:10;100710;;;23;46
33432;BME280;35187;31.882;34.828;2023-05-07T13:25:39;100710;;;23;46
33432;BME280;35187;31.882;34.828;2023-05-07T13:28:09;100710;;;22;46
33432;BME280;35187;31.882;34.828;2023-05-07T13:30:38;100710;;;23;46
33432;BME280;35187;31.882;34.828;2023-05-07T13:33:07;100700;;;22;46
33432;BME280;35187;31.882;34.828;2023-05-07T13:35:36;100710;;;22;45
33432;BME280;35187;31.882;34.828;2023-05-07T13:38:11;100710;;;23;45
33432;BME280;35187;31.882;34.828;2023-05-07T13:40:40;100710;;;23;45
33432;BME280;35187;31.882;34.828;2023-05-07T13:43:10;100710;;;22;45
33432;BME280;35187;31.882;34.828;2023-05-07T13:45:38;100710;;;22;45
33432;BME280;35187;31.882;34.828;2023-05-07T13:48:07;100720;;;23;45
33432;BME280;35187;31.882;34.828;2023-05-07T13:50:36;100720;;;22;45
33432;BME280;35187;31.882;34.828;2023-05-07T13:53:07;100720;;;22;45
33432;BME280;35187;31.882;34.828;2023-05-07T13:55:36;100720;;;22;45
33432;BME280;35187;31.882;34.828;2023-05-07T13:58:09;100720;;;23;45
33432;BME280;35187;31.882;34.828;2023-05-07T14:00:38;100720;;;23;45
33432;BME280;35187;31.882;34.828;2023-05-07T14:03:07;100720;;;23;45
33432;BME280;35187;31.882;34.828;2023-05-07T14:05:36;100720;;;23;45
33432;BME280;35187;31.882;34.828;2023-05-07T14:08:05;100720;;;22;45
33432;BME280;35187;31.882;34.828;2023-05-07T14:10:34;100720;;;23;44
33432;BME280;35187;31.882;34.828;2023-05-07T14:13:04;100720;;;22;45
33432;BME280;35187;31.882;34.828;2023-05-07T14:15:33;100720;;;22;45
33432;BME280;35187;31.882;34.828;2023-05-07T14:18:02;100720;;;23;44
33432;BME280;35187;31.882;34.828;2023-05-07T14:20:31;100720;;;22;44
33432;BME280;35187;31.882;34.828;2023-05-07T14:23:04;100730;;;23;44
33432;BME280;35187;31.882;34.828;2023-05-07T14:25:33;100720;;;22;43
33432;BME280;35187;31.882;34.828;2023-05-07T14:28:02;100720;;;22;44
33432;BME280;35187;31.882;34.828;2023-05-07T14:30:37;100730;;;22;44
33432;BME280;35187;31.882;34.828;2023-05-07T14:33:06;100720;;;22;44
33432;BME280;35187;31.882;34.828;2023-05-07T14:35:35;100720;;;22;44
33432;BME280;35187;31.882;34.828;2023-05-07T14:38:04;100720;;;23;44
33432;BME280;35187;31.882;34.828;2023-05-07T14:40:32;100720;;;22;45
33432;BME280;35187;31.882;34.828;2023-05-07T14:43:10;100730;;;22;44
33432;BME280;35187;31.882;34.828;2023-05-07T14:45:39;100730;;;22;44
33432;BME280;35187;31.882;34.828;2023-05-07T14:48:08;100720;;;22;43